Time;durP1;ratioP1;P1;durP2;ratioP2;P2;SDS_P1;SDS_P2;PMS_P1;PMS_P2;Temp;Humidity;BMP_temperature;BMP_pressure;BME280_temperature;BME280_humidity;BME280_pressure;Samples;Min_cycle;Max_cycle;Signal;HPM_P1;HPM_P2
2022/04/10 00:00:28;;;;;;;4.17;2.60;;;0.50;99.90;;;;;;4212271;28;20443;-70
2022/04/10 00:02:29;;;;;;;5.33;2.80;;;0.40;99.90;;;;;;4213777;28;20830;-70
2022/04/10 00:04:30;;;;;;;6.40;3.43;;;0.40;99.90;;;;;;4211584;28;20214;-70
2022/04/10 00:06:30;;;;;;;4.67;2.80;;;0.40;99.90;;;;;;4212960;28;20231;-70
2022/04/10 00:08:31;;;;;;;5.53;3.00;;;0.40;99.90;;;;;;4211631;28;20197;-70
2022/04/10 00:10:32;;;;;;;4.50;3.07;;;0.40;99.90;;;;;;4212460;28;20746;-70
2022/04/10 00:12:34;;;;;;;7.13;4.10;;;0.40;99.90;;;;;;4213748;28;20207;-70
2022/04/10 00:14:35;;;;;;;8.13;3.30;;;0.40;99.90;;;;;;4213641;28;20431;-70
2022/04/10 00:16:35;;;;;;;7.87;2.93;;;0.30;99.90;;;;;;4213143;28;20477;-70
2022/04/10 00:18:37;;;;;;;7.93;4.10;;;0.40;99.90;;;;;;4213377;28;20206;-69
2022/04/10 00:20:38;;;;;;;5.03;3.20;;;0.40;99.90;;;;;;4212203;28;20572;-70
2022/04/10 00:22:41;;;;;;;11.20;4.67;;;0.30;99.90;;;;;;4206292;28;20433;-70
2022/04/10 00:24:42;;;;;;;6.40;3.70;;;0.20;99.90;;;;;;4195416;28;20211;-70
2022/04/10 00:26:42;;;;;;;5.60;3.60;;;0.20;99.90;;;;;;4196116;28;20534;-70
2022/04/10 00:28:43;;;;;;;7.10;3.87;;;0.10;99.90;;;;;;4195286;28;20186;-70
2022/04/10 00:30:44;;;;;;;5.37;3.80;;;0.10;99.90;;;;;;4196112;28;20178;-70
2022/04/10 00:32:45;;;;;;;5.83;4.10;;;0.10;99.90;;;;;;4196664;28;20185;-70
2022/04/10 00:34:45;;;;;;;5.93;3.13;;;0.10;99.90;;;;;;4196383;28;20645;-69
2022/04/10 00:36:46;;;;;;;5.30;3.50;;;0.20;99.90;;;;;;4195786;28;20243;-70
2022/04/10 00:38:47;;;;;;;6.73;3.50;;;0.20;99.90;;;;;;4196401;28;20181;-69
2022/04/10 00:40:48;;;;;;;6.50;4.77;;;0.20;99.90;;;;;;4196394;28;20251;-70
2022/04/10 00:42:49;;;;;;;4.90;3.33;;;0.20;99.90;;;;;;4196503;28;20186;-70
2022/04/10 00:44:50;;;;;;;10.10;5.10;;;0.20;99.90;;;;;;4196491;28;20560;-69
2022/04/10 00:46:51;;;;;;;4.90;3.40;;;0.20;99.90;;;;;;4178364;28;20450;-69
2022/04/10 00:48:51;;;;;;;7.60;4.20;;;0.20;99.90;;;;;;4196235;28;20210;-69
2022/04/10 00:53:14;;;;;;;7.43;4.10;;;0.20;99.90;;;;;;4178860;28;20286;-70
2022/04/10 00:55:16;;;;;;;9.43;4.40;;;0.10;99.90;;;;;;4177909;28;20993;-70
2022/04/10 00:57:18;;;;;;;5.03;3.77;;;0.10;99.90;;;;;;4178672;28;20731;-70
2022/04/10 00:59:20;;;;;;;7.33;4.60;;;0.10;99.90;;;;;;4178376;28;20421;-70
2022/04/10 01:01:21;;;;;;;9.23;4.33;;;0.10;99.90;;;;;;4179670;28;20959;-70
2022/04/10 01:03:22;;;;;;;8.10;4.43;;;0.10;99.90;;;;;;4179497;28;20429;-70
2022/04/10 01:05:22;;;;;;;5.07;3.70;;;0.20;99.90;;;;;;4177496;28;20210;-70
2022/04/10 01:07:24;;;;;;;5.70;3.70;;;0.20;99.90;;;;;;4178231;28;20772;-69
2022/04/10 01:09:25;;;;;;;6.67;4.47;;;0.10;99.90;;;;;;4178397;28;20223;-70
2022/04/10 01:11:25;;;;;;;5.37;3.97;;;0.10;99.90;;;;;;4179559;28;21098;-70
2022/04/10 01:13:26;;;;;;;14.53;3.93;;;0.10;99.90;;;;;;4179469;28;20189;-69
2022/04/10 01:15:27;;;;;;;7.13;4.23;;;0.10;99.90;;;;;;4177751;28;20225;-70
2022/04/10 01:17:31;;;;;;;6.97;3.83;;;0.20;99.90;;;;;;4179537;28;20457;-70
2022/04/10 01:19:31;;;;;;;8.10;4.43;;;0.20;99.90;;;;;;4178193;28;20225;-70
2022/04/10 01:21:46;;;;;;;6.00;4.40;;;0.20;99.90;;;;;;4178331;28;21034;-70
2022/04/10 01:23:47;;;;;;;5.50;3.77;;;0.30;99.90;;;;;;4179504;28;20183;-69
2022/04/10 01:25:47;;;;;;;6.20;4.17;;;0.30;99.90;;;;;;4177653;28;20577;-70
2022/04/10 01:27:48;;;;;;;12.50;4.40;;;0.20;99.90;;;;;;4178177;28;20422;-70
2022/04/10 01:29:49;;;;;;;6.10;3.93;;;0.30;99.90;;;;;;4178032;28;20202;-70
2022/04/10 01:31:50;;;;;;;5.87;4.13;;;0.40;99.90;;;;;;4178005;28;20184;-70
2022/04/10 01:33:51;;;;;;;10.13;4.00;;;0.40;99.90;;;;;;4179163;28;20931;-69
2022/04/10 01:35:51;;;;;;;5.80;3.93;;;0.30;99.90;;;;;;4178494;28;20203;-69
2022/04/10 01:37:54;;;;;;;6.03;4.13;;;0.30;99.90;;;;;;4177841;28;20422;-70
2022/04/10 01:39:55;;;;;;;8.30;3.93;;;0.30;99.90;;;;;;4177805;28;20194;-69
2022/04/10 01:41:55;;;;;;;5.87;3.97;;;0.30;99.90;;;;;;4177017;28;20844;-70
2022/04/10 01:43:58;;;;;;;6.53;4.40;;;0.40;99.90;;;;;;4178826;28;20187;-69
2022/04/10 01:45:59;;;;;;;6.23;3.93;;;0.40;99.90;;;;;;4177237;28;20203;-69
2022/04/10 01:48:00;;;;;;;4.93;3.80;;;0.30;99.90;;;;;;4178902;28;20421;-69
2022/04/10 01:50:02;;;;;;;6.10;4.10;;;0.40;99.90;;;;;;4178805;28;20262;-70
2022/04/10 01:52:03;;;;;;;4.97;3.70;;;0.40;99.90;;;;;;4177500;28;20430;-70
2022/04/10 01:54:04;;;;;;;5.10;3.40;;;0.40;99.90;;;;;;4177447;28;21204;-70
2022/04/10 01:56:06;;;;;;;6.27;4.13;;;0.40;99.90;;;;;;4178541;28;20457;-69
2022/04/10 01:58:07;;;;;;;5.80;3.90;;;0.40;99.90;;;;;;4180963;28;20191;-70
2022/04/10 02:00:09;;;;;;;6.73;4.03;;;0.30;99.90;;;;;;4180570;28;20417;-70
2022/04/10 02:02:09;;;;;;;6.63;3.80;;;0.30;99.90;;;;;;4180851;28;20574;-70
2022/04/10 02:04:10;;;;;;;6.43;4.20;;;0.40;99.90;;;;;;4179912;28;20462;-70
2022/04/10 02:06:11;;;;;;;7.63;4.03;;;0.40;99.90;;;;;;4180471;28;20184;-70
2022/04/10 02:08:15;;;;;;;8.47;3.80;;;0.40;99.90;;;;;;4179691;28;20186;-70
2022/04/10 02:10:16;;;;;;;6.03;4.43;;;0.40;99.90;;;;;;4179772;28;20488;-70
2022/04/10 02:12:16;;;;;;;7.07;3.50;;;0.40;99.90;;;;;;4180737;28;20443;-71
2022/04/10 02:14:17;;;;;;;7.70;4.13;;;0.40;99.90;;;;;;4179576;28;20184;-70
2022/04/10 02:16:19;;;;;;;6.43;4.20;;;0.40;99.90;;;;;;4179023;28;20199;-70
2022/04/10 02:18:20;;;;;;;6.27;3.87;;;0.50;99.90;;;;;;4180638;28;20211;-70
2022/04/10 02:20:21;;;;;;;6.27;3.60;;;0.40;99.90;;;;;;4180609;28;20447;-70
2022/04/10 02:22:21;;;;;;;6.40;4.10;;;0.50;99.90;;;;;;4179059;28;20178;-69
2022/04/10 02:24:22;;;;;;;5.20;3.80;;;0.40;99.90;;;;;;4179031;28;20227;-70
2022/04/10 02:26:23;;;;;;;6.00;3.77;;;0.40;99.90;;;;;;4179973;28;20234;-71
2022/04/10 02:28:23;;;;;;;7.00;3.97;;;0.40;99.90;;;;;;4178735;28;20195;-69
2022/04/10 02:30:24;;;;;;;5.67;3.87;;;0.50;99.90;;;;;;4188695;28;20288;-70
2022/04/10 02:32:25;;;;;;;7.30;3.97;;;0.50;99.90;;;;;;4197147;28;20641;-70
2022/04/10 02:34:25;;;;;;;5.93;3.60;;;0.50;99.90;;;;;;4197042;28;20225;-71
2022/04/10 02:36:26;;;;;;;4.23;3.43;;;0.50;99.90;;;;;;4196278;28;20202;-70
2022/04/10 02:38:27;;;;;;;4.43;3.57;;;0.50;99.90;;;;;;4197199;28;20210;-70
2022/04/10 02:40:27;;;;;;;6.37;4.37;;;0.50;99.90;;;;;;4195562;28;20186;-70
2022/04/10 02:42:28;;;;;;;8.00;3.80;;;0.40;99.90;;;;;;4195788;28;20289;-70
2022/04/10 02:44:29;;;;;;;5.70;3.87;;;0.40;99.90;;;;;;4195642;28;20218;-70
2022/04/10 02:46:29;;;;;;;5.80;4.13;;;0.40;99.90;;;;;;4196462;28;20264;-71
2022/04/10 02:48:30;;;;;;;5.77;3.87;;;0.40;99.90;;;;;;4181178;28;20188;-70
2022/04/10 02:50:31;;;;;;;7.00;3.90;;;0.50;99.90;;;;;;4180597;28;20211;-71
2022/04/10 02:52:32;;;;;;;6.90;4.80;;;0.40;99.90;;;;;;4181277;28;20187;-70
2022/04/10 02:54:32;;;;;;;8.27;4.70;;;0.50;99.90;;;;;;4182059;28;20230;-70
2022/04/10 02:56:33;;;;;;;8.73;4.37;;;0.50;99.90;;;;;;4181948;28;20204;-71
2022/04/10 02:58:34;;;;;;;4.83;3.50;;;0.50;99.90;;;;;;4182103;28;20194;-70
2022/04/10 03:00:34;;;;;;;6.43;3.80;;;0.50;99.90;;;;;;4183749;28;20191;-70
2022/04/10 03:02:38;;;;;;;8.37;4.33;;;0.40;99.90;;;;;;4183712;28;20177;-71
2022/04/10 03:04:39;;;;;;;6.33;4.23;;;0.40;99.90;;;;;;4183449;28;20215;-70
2022/04/10 03:06:39;;;;;;;6.73;4.13;;;0.30;99.90;;;;;;4182405;28;20442;-71
2022/04/10 03:08:40;;;;;;;8.33;4.33;;;0.30;99.90;;;;;;4183960;28;20175;-71
2022/04/10 03:10:41;;;;;;;11.17;5.03;;;0.30;99.90;;;;;;4182084;28;20187;-70
2022/04/10 03:12:41;;;;;;;6.97;4.27;;;0.30;99.90;;;;;;4183988;28;20194;-71
2022/04/10 03:14:42;;;;;;;6.83;4.10;;;0.30;99.90;;;;;;4183672;28;20187;-71
2022/04/10 03:16:44;;;;;;;5.80;4.20;;;0.20;99.90;;;;;;4183311;28;20206;-69
2022/04/10 03:18:44;;;;;;;7.70;4.70;;;0.20;99.90;;;;;;4183827;28;20215;-69
2022/04/10 03:20:45;;;;;;;6.37;4.40;;;0.30;99.90;;;;;;4182769;28;20449;-70
2022/04/10 03:22:46;;;;;;;5.80;4.50;;;0.20;99.90;;;;;;4183991;28;20185;-70
2022/04/10 03:24:46;;;;;;;5.83;4.17;;;0.20;99.90;;;;;;4184037;28;20257;-71
2022/04/10 03:26:47;;;;;;;7.33;5.27;;;0.30;99.90;;;;;;4165305;28;20204;-70
2022/04/10 03:28:47;;;;;;;5.83;4.33;;;0.20;99.90;;;;;;4183846;28;20219;-71
2022/04/10 03:30:48;;;;;;;6.70;4.80;;;0.30;99.90;;;;;;4183870;28;20176;-70
2022/04/10 03:32:49;;;;;;;6.87;4.57;;;0.30;99.90;;;;;;4183689;28;20183;-70
2022/04/10 03:34:49;;;;;;;9.27;5.30;;;0.20;99.90;;;;;;4183769;28;20238;-70
2022/04/10 03:36:50;;;;;;;7.03;4.90;;;0.20;99.90;;;;;;4182145;28;20235;-71
2022/04/10 03:38:51;;;;;;;8.80;4.37;;;0.30;99.90;;;;;;4183783;28;20187;-71
2022/04/10 03:40:51;;;;;;;7.10;4.80;;;0.20;99.90;;;;;;4183699;28;20241;-70
2022/04/10 03:42:52;;;;;;;7.93;4.87;;;0.20;99.90;;;;;;4183360;28;20187;-70
2022/04/10 03:44:53;;;;;;;6.57;4.53;;;0.20;99.90;;;;;;4183227;28;20221;-70
2022/04/10 03:46:53;;;;;;;10.20;5.00;;;0.20;99.90;;;;;;4183246;28;20203;-69
2022/04/10 03:48:54;;;;;;;7.70;5.47;;;0.00;99.90;;;;;;4183388;28;20191;-70
2022/04/10 03:50:55;;;;;;;5.70;4.17;;;-0.10;99.90;;;;;;4183295;28;20795;-71
2022/04/10 03:52:56;;;;;;;6.10;4.07;;;-0.20;99.90;;;;;;4183649;28;20187;-71
2022/04/10 03:54:56;;;;;;;7.40;4.70;;;-0.20;99.90;;;;;;4183833;28;20831;-70
2022/04/10 03:56:57;;;;;;;5.63;4.10;;;-0.20;99.90;;;;;;4183317;28;20210;-70
2022/04/10 03:58:58;;;;;;;7.63;5.27;;;-0.30;99.90;;;;;;4183306;28;20214;-71
2022/04/10 04:00:58;;;;;;;7.03;5.17;;;-0.30;99.90;;;;;;4183817;28;20218;-71
2022/04/10 04:02:59;;;;;;;10.07;5.43;;;-0.30;99.90;;;;;;4183751;28;20198;-70
2022/04/10 04:05:00;;;;;;;9.03;5.67;;;-0.40;99.90;;;;;;4182190;28;20215;-73
2022/04/10 04:07:01;;;;;;;7.43;5.03;;;-0.40;99.90;;;;;;4183129;28;20237;-70
2022/04/10 04:09:01;;;;;;;7.30;4.67;;;-0.40;99.90;;;;;;4182368;28;20189;-71
2022/04/10 04:11:02;;;;;;;6.70;4.93;;;-0.40;99.90;;;;;;4180444;28;20179;-70
2022/04/10 04:13:03;;;;;;;7.33;5.23;;;-0.50;99.90;;;;;;4181224;28;20187;-70
2022/04/10 04:15:05;;;;;;;7.63;5.43;;;-0.50;99.90;;;;;;4179472;28;20718;-70
2022/04/10 04:17:06;;;;;;;8.83;5.37;;;-0.50;99.90;;;;;;4180789;28;20285;-70
2022/04/10 04:19:07;;;;;;;8.47;5.27;;;-0.60;99.90;;;;;;4182107;28;20459;-70
2022/04/10 04:21:08;;;;;;;7.87;5.37;;;-0.60;99.90;;;;;;4188024;28;20216;-70
2022/04/10 04:23:08;;;;;;;9.97;5.90;;;-0.60;99.90;;;;;;4199354;28;20436;-70
2022/04/10 04:25:09;;;;;;;8.30;5.67;;;-0.70;99.90;;;;;;4197193;28;20218;-71
2022/04/10 04:27:10;;;;;;;10.13;6.37;;;-0.70;99.90;;;;;;4198475;28;20210;-70
2022/04/10 04:29:11;;;;;;;10.30;6.97;;;-0.60;99.90;;;;;;4195306;28;20185;-70
2022/04/10 04:31:12;;;;;;;9.07;5.40;;;-0.60;99.90;;;;;;4195182;28;20524;-71
2022/04/10 04:33:12;;;;;;;13.73;6.20;;;-0.70;99.90;;;;;;4196399;28;20177;-70
2022/04/10 04:35:15;;;;;;;9.80;6.20;;;-0.70;99.90;;;;;;4195761;28;20216;-70
2022/04/10 04:37:15;;;;;;;10.83;6.60;;;-0.80;99.90;;;;;;4195004;28;20187;-71
2022/04/10 04:39:16;;;;;;;9.83;6.13;;;-0.70;99.90;;;;;;4196298;28;20992;-70
2022/04/10 04:41:17;;;;;;;9.83;6.43;;;-0.70;99.90;;;;;;4194954;28;20679;-70
2022/04/10 04:43:17;;;;;;;9.43;6.27;;;-0.60;99.90;;;;;;4196244;28;20191;-70
2022/04/10 04:45:18;;;;;;;9.63;5.90;;;-0.60;99.90;;;;;;4195559;28;20318;-70
2022/04/10 04:47:20;;;;;;;12.83;7.23;;;-0.60;99.90;;;;;;4195089;28;20190;-71
2022/04/10 04:49:20;;;;;;;21.77;6.83;;;-0.60;99.90;;;;;;4196335;28;20217;-71
2022/04/10 04:51:21;;;;;;;11.90;6.67;;;-0.50;99.90;;;;;;4196227;28;20452;-71
2022/04/10 04:53:22;;;;;;;8.50;5.67;;;-0.50;99.90;;;;;;4189224;28;20187;-70
2022/04/10 04:55:22;;;;;;;9.03;5.90;;;-0.40;99.90;;;;;;4194190;28;20245;-71
2022/04/10 04:57:23;;;;;;;14.13;6.53;;;-0.40;99.90;;;;;;4178231;28;20820;-70
2022/04/10 04:59:24;;;;;;;11.20;5.77;;;-0.40;99.90;;;;;;4179458;28;20921;-71
2022/04/10 05:01:24;;;;;;;8.97;6.23;;;-0.40;99.90;;;;;;4178234;28;20991;-70
2022/04/10 05:03:25;;;;;;;10.37;6.17;;;-0.30;99.90;;;;;;4178111;28;20681;-70
2022/04/10 05:05:26;;;;;;;10.50;6.87;;;-0.30;99.90;;;;;;4177534;28;20219;-70
2022/04/10 05:07:26;;;;;;;10.80;6.57;;;-0.40;99.90;;;;;;4178408;28;20183;-69
2022/04/10 05:09:27;;;;;;;13.57;7.83;;;-0.30;99.90;;;;;;4178315;28;20198;-70
2022/04/10 05:11:28;;;;;;;10.03;6.97;;;-0.30;99.90;;;;;;4178211;28;20279;-70
2022/04/10 05:13:28;;;;;;;9.43;6.60;;;-0.20;99.90;;;;;;4179218;28;20189;-70
2022/04/10 05:15:29;;;;;;;10.67;6.07;;;-0.20;99.90;;;;;;4177341;28;20191;-70
2022/04/10 05:17:30;;;;;;;10.63;6.93;;;-0.20;99.90;;;;;;4179191;28;20184;-70
2022/04/10 05:19:30;;;;;;;7.77;5.13;;;-0.20;99.90;;;;;;4179067;28;20677;-71
2022/04/10 05:21:31;;;;;;;7.77;5.07;;;-0.10;99.90;;;;;;4179071;28;20289;-69
2022/04/10 05:23:32;;;;;;;15.50;6.37;;;-0.10;99.90;;;;;;4179114;28;20195;-70
2022/04/10 05:25:32;;;;;;;7.73;6.07;;;0.00;99.90;;;;;;4177131;28;20310;-70
2022/04/10 05:27:33;;;;;;;8.57;6.10;;;0.10;99.90;;;;;;4179161;28;20214;-69
2022/04/10 05:29:34;;;;;;;9.43;6.03;;;0.10;99.90;;;;;;4179079;28;20179;-70
2022/04/10 05:31:34;;;;;;;13.63;6.60;;;0.10;99.90;;;;;;4179111;28;20221;-70
2022/04/10 05:33:36;;;;;;;11.87;6.50;;;0.10;99.90;;;;;;4179015;28;20190;-70
2022/04/10 05:35:37;;;;;;;8.13;5.60;;;0.20;99.90;;;;;;4178377;28;20264;-70
2022/04/10 05:37:38;;;;;;;8.20;5.30;;;0.30;99.90;;;;;;4177737;28;20921;-70
2022/04/10 05:39:39;;;;;;;7.40;4.43;;;0.30;99.90;;;;;;4177653;28;20194;-70
2022/04/10 05:41:40;;;;;;;11.60;5.37;;;0.40;99.90;;;;;;4177583;28;20187;-70
2022/04/10 05:43:40;;;;;;;10.63;5.47;;;0.50;99.90;;;;;;4178793;28;20943;-70
2022/04/10 05:45:41;;;;;;;8.70;5.93;;;0.60;99.90;;;;;;4178167;28;20215;-70
2022/04/10 05:47:43;;;;;;;9.20;6.00;;;0.50;99.90;;;;;;4178967;28;20176;-70
2022/04/10 05:49:43;;;;;;;20.17;9.00;;;0.60;99.90;;;;;;4178737;28;20176;-70
2022/04/10 05:51:44;;;;;;;26.67;13.03;;;0.70;99.90;;;;;;4177260;28;20428;-70
2022/04/10 05:53:45;;;;;;;11.00;7.33;;;0.80;99.90;;;;;;4178683;28;20214;-70
2022/04/10 05:55:45;;;;;;;8.50;5.77;;;0.70;99.90;;;;;;4176746;28;20266;-70
2022/04/10 05:57:47;;;;;;;9.40;5.70;;;0.90;99.90;;;;;;4178734;28;20211;-70
2022/04/10 05:59:47;;;;;;;11.73;6.47;;;0.90;99.90;;;;;;4177628;28;20199;-70
2022/04/10 06:01:48;;;;;;;7.53;5.07;;;1.00;99.90;;;;;;4178624;28;20438;-70
2022/04/10 06:03:49;;;;;;;10.27;5.60;;;1.20;99.90;;;;;;4178573;28;20194;-70
2022/04/10 06:05:49;;;;;;;8.30;5.33;;;1.20;99.90;;;;;;4178064;28;20216;-70
2022/04/10 06:07:50;;;;;;;7.03;4.67;;;1.20;99.90;;;;;;4178707;28;20188;-70
2022/04/10 06:09:51;;;;;;;6.60;4.93;;;1.30;99.90;;;;;;4178693;28;20668;-70
2022/04/10 06:11:51;;;;;;;7.57;4.70;;;1.40;99.90;;;;;;4177119;28;20210;-70
2022/04/10 06:13:53;;;;;;;8.50;5.03;;;1.50;99.90;;;;;;4177262;28;20195;-70
2022/04/10 06:15:53;;;;;;;9.07;5.77;;;1.70;99.90;;;;;;4177847;28;20204;-71
2022/04/10 06:17:54;;;;;;;8.63;6.10;;;1.90;99.90;;;;;;4191023;28;20449;-70
2022/04/10 06:19:55;;;;;;;9.40;5.93;;;1.90;99.90;;;;;;4194841;28;20227;-70
2022/04/10 06:21:55;;;;;;;8.60;5.77;;;2.10;99.90;;;;;;4193607;28;20183;-71
2022/04/10 06:23:56;;;;;;;7.93;5.70;;;2.20;99.90;;;;;;4194778;28;20215;-70
2022/04/10 06:25:57;;;;;;;10.77;7.70;;;2.30;99.90;;;;;;4192916;28;20196;-70
2022/04/10 06:27:57;;;;;;;10.93;7.77;;;2.40;99.90;;;;;;4193039;28;20180;-70
2022/04/10 06:29:58;;;;;;;9.17;7.33;;;2.40;99.90;;;;;;4194873;28;20200;-70
2022/04/10 06:31:58;;;;;;;9.27;4.43;;;2.60;99.90;;;;;;4194816;28;20190;-70
2022/04/10 06:33:59;;;;;;;7.57;4.53;;;2.60;99.90;;;;;;4193386;28;20179;-71
2022/04/10 06:36:00;;;;;;;6.30;3.73;;;2.70;99.90;;;;;;4194090;28;20198;-71
2022/04/10 06:38:01;;;;;;;8.10;4.20;;;2.80;99.90;;;;;;4194829;28;20180;-71
2022/04/10 06:40:01;;;;;;;7.73;4.87;;;2.90;99.90;;;;;;4194693;28;20196;-70
2022/04/10 06:42:06;;;;;;;4.40;3.50;;;3.00;99.90;;;;;;4194741;28;20316;-70
2022/04/10 06:44:06;;;;;;;4.90;4.13;;;2.90;99.90;;;;;;4176619;28;20180;-70
2022/04/10 06:46:08;;;;;;;4.63;3.43;;;2.80;99.90;;;;;;4194169;28;20899;-70
2022/04/10 06:48:08;;;;;;;8.97;4.43;;;2.70;99.90;;;;;;4187292;28;20181;-70
2022/04/10 06:50:09;;;;;;;5.50;3.20;;;2.90;99.90;;;;;;4176712;28;20431;-70
2022/04/10 06:52:09;;;;;;;6.40;4.10;;;2.80;99.90;;;;;;4176764;28;20575;-70
2022/04/10 06:54:10;;;;;;;6.77;3.97;;;2.80;99.90;;;;;;4176837;28;20172;-71
2022/04/10 06:56:11;;;;;;;5.90;3.43;;;2.80;99.90;;;;;;4176163;28;20202;-72
2022/04/10 06:58:12;;;;;;;5.50;3.77;;;2.80;99.90;;;;;;4177989;28;20180;-71
2022/04/10 07:00:13;;;;;;;7.50;4.43;;;2.70;99.90;;;;;;4177983;28;20169;-71
2022/04/10 07:02:14;;;;;;;7.00;4.10;;;2.80;99.90;;;;;;4177914;28;20665;-72
2022/04/10 07:04:15;;;;;;;9.93;4.67;;;2.80;99.90;;;;;;4177952;28;20467;-71
2022/04/10 07:06:15;;;;;;;4.97;3.90;;;2.60;99.90;;;;;;4177197;28;20201;-72
2022/04/10 07:08:16;;;;;;;6.10;4.47;;;2.50;99.90;;;;;;4176674;28;20755;-71
2022/04/10 07:10:17;;;;;;;5.93;3.70;;;2.50;99.90;;;;;;4178148;28;20180;-71
2022/04/10 07:12:17;;;;;;;6.87;3.97;;;2.50;99.90;;;;;;4176958;28;20171;-71
2022/04/10 07:14:18;;;;;;;5.53;3.93;;;2.40;99.90;;;;;;4178249;28;20230;-72
2022/04/10 07:16:19;;;;;;;5.17;4.00;;;2.30;99.90;;;;;;4176000;28;20245;-71
2022/04/10 07:18:20;;;;;;;7.53;4.47;;;2.30;99.90;;;;;;4177877;28;20191;-72
2022/04/10 07:20:20;;;;;;;6.03;3.27;;;2.50;99.90;;;;;;4177773;28;20283;-71
2022/04/10 07:24:41;;;;;;;7.03;4.13;;;2.80;99.90;;;;;;4176676;28;20302;-71
2022/04/10 07:26:42;;;;;;;6.40;4.23;;;3.10;99.50;;;;;;4175720;28;20438;-72
2022/04/10 07:28:42;;;;;;;6.60;4.13;;;3.20;99.90;;;;;;4177780;28;20790;-72
2022/04/10 07:30:43;;;;;;;5.53;4.73;;;3.50;99.10;;;;;;4177729;28;20177;-72
2022/04/10 07:32:54;;;;;;;6.83;4.40;;;3.70;99.90;;;;;;4177850;28;20607;-72
2022/04/10 07:34:55;;;;;;;5.87;3.60;;;4.10;98.10;;;;;;4176574;28;20191;-71
2022/04/10 07:36:56;;;;;;;5.43;3.90;;;4.20;96.80;;;;;;4178657;28;20478;-72
2022/04/10 07:38:57;;;;;;;4.23;3.63;;;4.30;94.90;;;;;;4176492;28;20189;-71
2022/04/10 07:40:58;;;;;;;6.43;3.23;;;4.20;95.70;;;;;;4179606;28;20271;-72
2022/04/10 07:42:59;;;;;;;3.97;3.47;;;4.50;95.20;;;;;;4180873;28;20425;-71
2022/04/10 07:45:00;;;;;;;4.13;2.80;;;4.60;92.90;;;;;;4183946;28;20474;-68
2022/04/10 07:49:20;;;;;;;5.07;2.90;;;4.60;91.40;;;;;;4196094;28;20703;-72
2022/04/10 07:51:20;;;;;;;5.37;2.80;;;4.70;86.30;;;;;;4197157;28;20414;-70
2022/04/10 07:53:21;;;;;;;4.73;2.87;;;4.60;81.80;;;;;;4197002;28;20182;-71
2022/04/10 07:55:23;;;;;;;4.43;2.80;;;4.40;83.60;;;;;;4196256;28;20193;-71
2022/04/10 07:57:23;;;;;;;4.53;2.63;;;4.40;86.10;;;;;;4195638;28;20209;-71
2022/04/10 07:59:24;;;;;;;5.93;2.87;;;4.50;86.50;;;;;;4196797;28;20938;-70
2022/04/10 08:01:25;;;;;;;4.20;3.07;;;4.30;84.20;;;;;;4196843;28;20709;-70
2022/04/10 08:03:26;;;;;;;6.17;3.37;;;4.50;88.20;;;;;;4197009;28;20179;-72
2022/04/10 08:05:27;;;;;;;7.63;2.80;;;4.80;86.30;;;;;;4196163;28;20217;-71
2022/04/10 08:07:27;;;;;;;4.87;2.87;;;4.70;87.30;;;;;;4195602;28;20841;-71
2022/04/10 08:09:28;;;;;;;3.70;2.63;;;4.70;86.40;;;;;;4196764;28;20258;-71
2022/04/10 08:11:29;;;;;;;3.67;2.80;;;4.70;87.40;;;;;;4179546;28;20196;-71
2022/04/10 08:13:33;;;;;;;5.13;3.43;;;4.80;88.80;;;;;;4180108;28;20236;-71
2022/04/10 08:15:33;;;;;;;4.33;2.80;;;4.90;83.80;;;;;;4179267;28;20207;-71
2022/04/10 08:17:34;;;;;;;6.30;3.07;;;4.70;84.20;;;;;;4185120;28;20521;-71
2022/04/10 08:19:35;;;;;;;4.33;2.77;;;4.60;85.00;;;;;;4185229;28;20677;-71
2022/04/10 08:21:36;;;;;;;5.07;3.00;;;4.50;83.50;;;;;;4186449;28;20456;-71
2022/04/10 08:23:36;;;;;;;4.80;3.00;;;4.60;80.90;;;;;;4196347;28;20182;-71
2022/04/10 08:25:37;;;;;;;3.47;2.43;;;4.60;78.20;;;;;;4195254;28;20644;-70
2022/04/10 08:27:38;;;;;;;3.30;2.67;;;4.70;79.30;;;;;;4178671;28;20186;-71
2022/04/10 08:29:39;;;;;;;3.50;2.87;;;4.60;82.60;;;;;;4195226;28;20251;-71
2022/04/10 08:31:39;;;;;;;3.50;2.83;;;4.70;83.50;;;;;;4196381;28;20452;-70
2022/04/10 08:33:40;;;;;;;4.27;3.03;;;4.70;82.30;;;;;;4195166;28;20191;-71
2022/04/10 08:35:41;;;;;;;3.70;2.67;;;4.70;84.40;;;;;;4195778;28;20201;-71
2022/04/10 08:37:41;;;;;;;2.73;2.53;;;4.90;84.30;;;;;;4195505;28;20226;-71
2022/04/10 08:39:42;;;;;;;3.57;2.90;;;5.10;84.50;;;;;;4196201;28;20245;-71
2022/04/10 08:41:46;;;;;;;3.50;2.90;;;5.20;82.50;;;;;;4207772;28;20204;-71
2022/04/10 08:43:46;;;;;;;3.67;2.50;;;5.50;81.30;;;;;;4193689;28;20262;-72
2022/04/10 08:45:48;;;;;;;4.63;3.00;;;5.40;81.10;;;;;;4201689;28;20793;-71
2022/04/10 08:47:49;;;;;;;2.83;2.43;;;5.10;76.50;;;;;;4199149;28;20179;-71
2022/04/10 08:49:52;;;;;;;4.07;2.47;;;5.30;79.30;;;;;;4207369;28;20914;-71
2022/04/10 08:51:54;;;;;;;4.30;2.70;;;5.30;77.90;;;;;;4198089;28;20467;-71
2022/04/10 08:53:56;;;;;;;4.07;2.53;;;5.20;79.00;;;;;;4209155;28;20433;-71
2022/04/10 08:55:56;;;;;;;2.83;2.20;;;5.10;81.70;;;;;;4197318;28;20580;-72
2022/04/10 08:57:57;;;;;;;3.77;2.20;;;5.10;80.30;;;;;;4208188;28;20950;-71
2022/04/10 08:59:58;;;;;;;2.37;2.00;;;5.30;81.30;;;;;;4198965;28;20573;-71
2022/04/10 09:01:59;;;;;;;3.10;2.43;;;5.20;79.20;;;;;;4209785;28;20196;-71
2022/04/10 09:04:00;;;;;;;4.87;3.13;;;5.10;79.80;;;;;;4198801;28;20657;-71
2022/04/10 09:06:06;;;;;;;4.50;2.40;;;5.20;78.00;;;;;;4208214;28;20743;-71
2022/04/10 09:08:12;;;;;;;2.53;2.20;;;5.50;76.30;;;;;;4197378;28;20479;-71
2022/04/10 09:10:14;;;;;;;2.93;2.00;;;5.80;73.20;;;;;;4209987;28;20487;-71
2022/04/10 09:12:17;;;;;;;3.53;1.73;;;6.00;68.80;;;;;;4196195;28;20453;-71
2022/04/10 09:14:36;;;;;;;4.47;2.10;;;6.30;63.50;;;;;;4212011;28;20512;-71
2022/04/10 09:16:37;;;;;;;3.93;2.23;;;6.30;65.70;;;;;;4195617;28;20484;-72
2022/04/10 09:18:51;;;;;;;2.50;1.40;;;6.20;63.30;;;;;;4194460;28;20470;-71
2022/04/10 09:21:08;;;;;;;2.40;1.50;;;6.20;55.10;;;;;;4207698;28;20282;-71
2022/04/10 09:23:09;;;;;;;3.63;1.80;;;6.10;56.20;;;;;;4187593;28;20470;-71
2022/04/10 09:25:16;;;;;;;2.80;1.77;;;5.90;60.90;;;;;;4178654;28;20486;-71
2022/04/10 09:27:32;;;;;;;1.90;1.67;;;6.20;60.80;;;;;;4178123;28;20430;-71
2022/04/10 09:29:50;;;;;;;10.30;2.37;;;6.20;60.30;;;;;;4177902;28;20423;-71
2022/04/10 09:31:54;;;;;;;2.67;1.70;;;6.40;60.50;;;;;;4179090;28;20419;-71
2022/04/10 09:33:56;;;;;;;4.07;1.60;;;6.20;61.10;;;;;;4161375;28;20464;-71
2022/04/10 09:35:57;;;;;;;2.33;1.83;;;6.20;62.00;;;;;;4176852;28;20825;-71
2022/04/10 09:37:58;;;;;;;3.80;1.40;;;6.40;60.90;;;;;;4178832;28;20423;-71
2022/04/10 09:40:32;;;;;;;1.60;1.47;;;6.60;57.90;;;;;;4178937;28;20225;-71
2022/04/10 09:42:37;;;;;;;2.17;1.43;;;6.40;53.70;;;;;;4179022;28;20555;-71
2022/04/10 09:44:40;;;;;;;1.60;1.47;;;6.30;57.30;;;;;;4178755;28;20493;-71
2022/04/10 09:46:41;;;;;;;2.30;1.30;;;6.40;58.20;;;;;;4178269;28;21114;-71
2022/04/10 09:48:41;;;;;;;4.83;1.73;;;6.70;59.80;;;;;;4177752;28;20415;-71
2022/04/10 09:50:43;;;;;;;2.63;1.50;;;6.50;56.90;;;;;;4177625;28;20180;-72
2022/04/10 09:52:44;;;;;;;1.50;1.40;;;6.30;60.10;;;;;;4177436;28;20246;-72
2022/04/10 09:54:47;;;;;;;1.83;1.20;;;6.10;59.40;;;;;;4177340;28;21043;-70
2022/04/10 09:56:49;;;;;;;2.67;1.80;;;6.00;61.30;;;;;;4176752;28;20196;-71
2022/04/10 09:58:51;;;;;;;2.63;1.60;;;6.00;61.00;;;;;;4177152;28;20427;-72
2022/04/10 10:00:54;;;;;;;3.43;1.80;;;6.20;63.60;;;;;;4177403;28;20941;-72
2022/04/10 10:02:55;;;;;;;8.50;3.80;;;6.50;61.40;;;;;;4176997;28;20458;-72
2022/04/10 10:04:57;;;;;;;2.10;1.50;;;6.30;64.60;;;;;;4177210;28;21027;-72
2022/04/10 10:06:58;;;;;;;2.30;1.63;;;6.10;64.60;;;;;;4177158;28;21023;-72
2022/04/10 10:08:59;;;;;;;2.93;1.70;;;6.10;64.60;;;;;;4177239;28;20426;-72
2022/04/10 10:11:01;;;;;;;4.57;1.90;;;6.10;62.20;;;;;;4177174;28;20168;-72
2022/04/10 10:13:05;;;;;;;2.10;1.40;;;6.40;65.80;;;;;;4177103;28;20687;-73
2022/04/10 10:15:07;;;;;;;2.30;1.77;;;6.40;59.20;;;;;;4178125;28;20422;-75
2022/04/10 10:17:10;;;;;;;2.03;1.57;;;6.50;65.50;;;;;;4187763;28;20532;-76
2022/04/10 10:19:11;;;;;;;2.80;1.40;;;6.50;59.20;;;;;;4189015;28;20442;-75
2022/04/10 10:21:13;;;;;;;1.87;1.67;;;6.50;59.70;;;;;;4176498;28;20470;-77
2022/04/10 10:23:15;;;;;;;1.73;1.27;;;6.60;57.10;;;;;;4202344;28;20203;-71
2022/04/10 10:25:24;;;;;;;1.60;1.27;;;6.50;59.40;;;;;;4201027;28;20501;-71
2022/04/10 10:27:50;;;;;;;1.57;1.47;;;6.80;58.20;;;;;;4199368;28;20426;-70
2022/04/10 10:29:57;;;;;;;1.33;1.20;;;6.60;57.60;;;;;;4194231;28;20811;-73
2022/04/10 10:32:14;;;;;;;2.10;1.60;;;6.60;57.90;;;;;;4209327;28;20907;-73
2022/04/10 10:34:16;;;;;;;1.90;1.40;;;6.80;56.20;;;;;;4179443;28;20521;-70
2022/04/10 10:36:29;;;;;;;1.60;1.30;;;6.90;55.60;;;;;;4207749;28;20449;-71
2022/04/10 10:38:32;;;;;;;4.40;1.50;;;6.90;54.60;;;;;;4195938;28;20441;-72
2022/04/10 10:40:33;;;;;;;2.67;1.43;;;7.10;56.20;;;;;;4207571;28;20421;-72
2022/04/10 10:42:42;;;;;;;2.27;2.00;;;7.30;57.20;;;;;;4196362;28;20570;-71
2022/04/10 10:44:48;;;;;;;1.57;1.30;;;7.60;57.10;;;;;;4206067;28;20683;-69
2022/04/10 10:47:02;;;;;;;4.43;1.83;;;7.60;56.10;;;;;;4197893;28;20538;-70